createdAt,value
2023-05-22T00:01:27.857Z,9.88
2023-05-22T00:03:55.229Z,14.98
2023-05-22T00:06:23.798Z,16.35
2023-05-22T00:08:51.017Z,10.13
2023-05-22T00:11:18.438Z,10.85
2023-05-22T00:13:46.568Z,11.18
2023-05-22T00:16:13.854Z,14.63
2023-05-22T00:18:42.475Z,11.02
2023-05-22T00:21:10.463Z,10.15
2023-05-22T00:23:37.719Z,11.77
2023-05-22T00:26:04.769Z,12.35
2023-05-22T00:28:32.046Z,9.30
2023-05-22T00:30:59.291Z,14.35
2023-05-22T00:33:26.952Z,12.30
2023-05-22T00:35:53.875Z,9.60
2023-05-22T00:38:32.867Z,7.68
2023-05-22T00:41:03.038Z,8.98
2023-05-22T00:43:30.877Z,6.78
2023-05-22T00:45:58.560Z,11.73
2023-05-22T00:48:27.370Z,12.98
2023-05-22T00:50:57.365Z,12.93
2023-05-22T00:53:25.983Z,10.00
2023-05-22T00:55:53.995Z,12.27
2023-05-22T00:58:21.946Z,7.47
2023-05-22T01:00:49.079Z,8.95
2023-05-22T01:03:18.982Z,12.82
2023-05-22T01:05:46.201Z,13.40
2023-05-22T01:08:13.761Z,12.70
2023-05-22T01:10:41.480Z,9.50
2023-05-22T01:13:09.234Z,7.25
2023-05-22T01:15:47.855Z,8.85
2023-05-22T01:18:35.021Z,7.85
2023-05-22T01:21:16.418Z,7.22
2023-05-22T01:23:59.976Z,12.07
2023-05-22T01:27:01.779Z,7.60
2023-05-22T01:29:43.368Z,10.70
2023-05-22T01:32:14.663Z,9.30
2023-05-22T01:34:45.162Z,11.40
2023-05-22T01:37:14.268Z,11.63
2023-05-22T01:39:42.474Z,9.57
2023-05-22T01:42:10.039Z,18.05
2023-05-22T01:44:37.758Z,11.15
2023-05-22T01:47:05.880Z,9.48
2023-05-22T01:49:35.631Z,11.80
2023-05-22T01:52:12.870Z,7.32
2023-05-22T01:54:50.326Z,8.50
2023-05-22T01:57:43.682Z,7.97
2023-05-22T02:00:15.186Z,10.13
2023-05-22T02:02:49.622Z,10.65
2023-05-22T02:05:21.914Z,10.43
2023-05-22T02:07:50.257Z,12.00
2023-05-22T02:10:20.488Z,8.13
2023-05-22T02:12:48.641Z,7.50
2023-05-22T02:15:16.902Z,13.90
2023-05-22T02:17:45.630Z,8.90
2023-05-22T02:20:15.677Z,9.40
2023-05-22T02:22:47.339Z,13.55
2023-05-22T02:25:17.564Z,8.05
2023-05-22T02:27:48.080Z,9.70
2023-05-22T02:30:15.628Z,8.73
2023-05-22T02:32:44.438Z,13.25
2023-05-22T02:35:12.156Z,11.15
2023-05-22T02:37:39.315Z,8.50
2023-05-22T02:40:07.700Z,10.77
2023-05-22T02:42:35.251Z,7.80
2023-05-22T02:45:03.032Z,10.30
2023-05-22T02:47:30.429Z,12.98
2023-05-22T02:50:00.642Z,9.43
2023-05-22T02:52:28.673Z,12.77
2023-05-22T02:54:56.034Z,11.35
2023-05-22T02:57:23.663Z,9.35
2023-05-22T02:59:51.292Z,13.43
2023-05-22T03:02:19.782Z,10.98
2023-05-22T03:04:48.883Z,27.35
2023-05-22T03:07:16.003Z,10.60
2023-05-22T03:09:43.254Z,11.52
2023-05-22T03:12:10.536Z,14.13
2023-05-22T03:14:37.993Z,10.20
2023-05-22T03:17:05.554Z,9.82
2023-05-22T03:19:33.166Z,8.27
2023-05-22T03:22:00.375Z,13.27
2023-05-22T03:24:27.957Z,8.73
2023-05-22T03:26:55.012Z,11.55
2023-05-22T03:29:32.595Z,12.15
2023-05-22T03:31:59.993Z,14.27
2023-05-22T03:34:27.767Z,13.10
2023-05-22T03:36:57.400Z,11.88
2023-05-22T03:39:24.883Z,9.63
2023-05-22T03:41:57.425Z,13.00
2023-05-22T03:44:25.569Z,12.25
2023-05-22T03:46:53.570Z,11.57
2023-05-22T03:49:20.947Z,12.77
2023-05-22T03:51:47.899Z,22.48
2023-05-22T03:54:16.478Z,10.95
2023-05-22T03:56:44.053Z,10.98
2023-05-22T03:59:11.731Z,11.45
2023-05-22T04:01:39.690Z,16.13
2023-05-22T04:04:07.043Z,14.13
2023-05-22T04:06:34.271Z,14.20
2023-05-22T04:09:01.443Z,12.85
2023-05-22T04:11:30.653Z,17.13
2023-05-22T04:14:03.930Z,14.60
2023-05-22T04:16:31.003Z,15.80
2023-05-22T04:18:58.948Z,11.38
2023-05-22T04:21:26.599Z,12.80
2023-05-22T04:23:54.127Z,16.30
2023-05-22T04:26:21.249Z,12.82
2023-05-22T04:28:49.607Z,12.38
2023-05-22T04:31:17.206Z,13.18
2023-05-22T04:33:48.415Z,11.35
2023-05-22T04:36:15.839Z,11.15
2023-05-22T04:38:44.922Z,17.88
2023-05-22T04:41:13.583Z,13.60
2023-05-22T04:43:41.128Z,16.20
2023-05-22T04:46:08.784Z,10.68
2023-05-22T04:48:37.968Z,14.85
2023-05-22T04:51:06.319Z,16.13
2023-05-22T04:53:34.075Z,10.70
2023-05-22T04:56:00.952Z,13.65
2023-05-22T04:58:29.616Z,8.30
2023-05-22T05:00:57.837Z,12.20
2023-05-22T05:03:25.778Z,7.68
2023-05-22T05:05:53.278Z,14.18
2023-05-22T05:08:21.815Z,12.90
2023-05-22T05:10:49.053Z,12.25
2023-05-22T05:13:16.604Z,13.70
2023-05-22T05:15:45.584Z,12.85
2023-05-22T05:18:13.531Z,11.50
2023-05-22T05:20:42.742Z,10.40
2023-05-22T05:23:10.502Z,10.07
2023-05-22T05:25:38.970Z,10.50
2023-05-22T05:28:10.901Z,11.63
2023-05-22T05:30:40.308Z,16.67
2023-05-22T05:33:34.201Z,11.48
2023-05-22T05:36:36.938Z,14.98
2023-05-22T05:39:04.918Z,16.20
2023-05-22T05:41:34.925Z,12.05
2023-05-22T05:44:07.772Z,13.77
2023-05-22T05:46:35.927Z,10.23
2023-05-22T05:49:11.314Z,13.05
2023-05-22T05:51:40.610Z,14.15
2023-05-22T05:54:09.197Z,12.38
2023-05-22T05:56:37.678Z,11.75
2023-05-22T05:59:05.384Z,11.98
2023-05-22T06:01:55.494Z,14.23
2023-05-22T06:04:28.504Z,10.05
2023-05-22T06:06:56.291Z,8.77
2023-05-22T06:09:40.823Z,8.88
2023-05-22T06:12:14.943Z,9.32
2023-05-22T06:14:45.899Z,15.90
2023-05-22T06:17:14.823Z,11.45
2023-05-22T06:19:43.927Z,11.30
2023-05-22T06:22:11.063Z,14.05
2023-05-22T06:24:41.558Z,12.80
2023-05-22T06:27:14.987Z,8.65
2023-05-22T06:29:42.405Z,11.48
2023-05-22T06:32:09.997Z,11.98
2023-05-22T06:34:40.529Z,10.50
2023-05-22T06:37:09.128Z,11.20
2023-05-22T06:39:41.115Z,10.48
2023-05-22T06:42:33.795Z,11.80
2023-05-22T06:45:20.107Z,12.48
2023-05-22T06:48:08.902Z,9.25
2023-05-22T06:50:43.664Z,8.95
2023-05-22T06:53:11.892Z,10.30
2023-05-22T06:55:40.956Z,10.77
2023-05-22T06:58:14.524Z,16.67
2023-05-22T07:00:44.722Z,9.48
2023-05-22T07:03:20.734Z,15.70
2023-05-22T07:06:12.394Z,8.63
2023-05-22T07:08:40.087Z,7.70
2023-05-22T07:11:08.791Z,7.40
2023-05-22T07:13:37.073Z,11.98
2023-05-22T07:16:05.079Z,10.23
2023-05-22T07:18:33.306Z,6.47
2023-05-22T07:21:01.693Z,8.02
2023-05-22T07:23:29.455Z,5.13
2023-05-22T07:25:56.845Z,9.80
2023-05-22T07:28:28.942Z,8.32
2023-05-22T07:31:03.721Z,4.30
2023-05-22T07:33:31.692Z,7.10
2023-05-22T07:35:59.750Z,7.40
2023-05-22T07:38:27.283Z,7.47
2023-05-22T07:41:01.405Z,11.20
2023-05-22T07:43:30.970Z,8.00
2023-05-22T07:46:00.075Z,12.95
2023-05-22T07:48:32.277Z,11.98
2023-05-22T07:51:00.077Z,13.27
2023-05-22T07:53:27.775Z,10.07
2023-05-22T07:55:58.144Z,6.13
2023-05-22T07:58:26.958Z,11.10
2023-05-22T08:00:56.018Z,6.15
2023-05-22T08:03:24.375Z,9.40
2023-05-22T08:05:51.904Z,9.70
2023-05-22T08:08:19.437Z,2.95
2023-05-22T08:11:03.054Z,8.27
2023-05-22T08:13:31.637Z,3.90
2023-05-22T08:16:00.661Z,4.72
2023-05-22T08:18:29.964Z,7.63
2023-05-22T08:20:58.553Z,3.38
2023-05-22T08:23:25.835Z,3.35
2023-05-22T08:25:53.501Z,9.52
2023-05-22T08:28:21.040Z,4.10
2023-05-22T08:30:48.977Z,7.95
2023-05-22T08:33:16.653Z,3.75
2023-05-22T08:35:44.644Z,6.30
2023-05-22T08:38:12.188Z,10.00
2023-05-22T08:40:41.283Z,8.40
2023-05-22T08:43:10.392Z,6.10
2023-05-22T08:45:42.499Z,5.35
2023-05-22T08:48:13.221Z,7.85
2023-05-22T08:53:13.732Z,5.40
2023-05-22T08:55:41.616Z,4.20
2023-05-22T08:58:10.819Z,6.78
2023-05-22T09:00:38.689Z,5.38
2023-05-22T09:03:10.515Z,6.25
2023-05-22T09:05:44.114Z,8.77
2023-05-22T09:10:48.450Z,3.50
2023-05-22T09:13:44.782Z,6.53
2023-05-22T09:16:13.460Z,4.68
2023-05-22T09:18:42.692Z,7.45
2023-05-22T09:21:28.970Z,5.45
2023-05-22T09:24:01.716Z,6.45
2023-05-22T09:26:29.937Z,8.65
2023-05-22T09:28:59.776Z,2.72
2023-05-22T09:31:29.554Z,4.88
2023-05-22T09:33:56.828Z,8.80
2023-05-22T09:36:33.921Z,7.35
2023-05-22T09:39:02.377Z,6.85
2023-05-22T09:41:35.965Z,6.70
2023-05-22T09:44:16.711Z,5.07
2023-05-22T09:46:46.204Z,9.23
2023-05-22T09:49:16.166Z,7.90
2023-05-22T09:51:48.194Z,4.10
2023-05-22T09:54:17.491Z,9.77
2023-05-22T09:56:49.456Z,14.90
2023-05-22T10:01:50.899Z,5.63
2023-05-22T10:04:18.806Z,4.80
2023-05-22T10:06:51.451Z,3.83
2023-05-22T10:09:23.578Z,3.35
2023-05-22T10:11:55.285Z,3.63
2023-05-22T10:16:51.605Z,3.63
2023-05-22T10:19:18.900Z,7.38
2023-05-22T10:21:48.284Z,10.93
2023-05-22T10:24:15.580Z,5.15
2023-05-22T10:26:44.521Z,9.10
2023-05-22T10:29:22.364Z,4.38
2023-05-22T10:32:03.463Z,9.77
2023-05-22T10:35:08.492Z,6.80
2023-05-22T10:37:49.004Z,5.20
2023-05-22T10:40:29.323Z,9.15
2023-05-22T10:42:58.856Z,5.53
2023-05-22T10:45:27.916Z,6.65
2023-05-22T10:48:08.893Z,5.55
2023-05-22T10:50:36.520Z,5.53
2023-05-22T10:53:28.143Z,5.18
2023-05-22T10:55:57.043Z,6.83
2023-05-22T10:58:32.516Z,8.70
2023-05-22T11:01:12.918Z,9.65
2023-05-22T11:03:57.506Z,7.40
2023-05-22T11:07:04.780Z,8.52
2023-05-22T11:09:48.183Z,4.70
2023-05-22T11:12:27.776Z,3.05
2023-05-22T11:15:07.009Z,9.60
2023-05-22T11:17:41.723Z,4.78
2023-05-22T11:20:22.496Z,9.07
2023-05-22T11:22:56.388Z,2.85
2023-05-22T11:25:25.233Z,4.22
2023-05-22T11:27:54.063Z,3.72
2023-05-22T11:30:27.069Z,7.57
2023-05-22T11:32:54.763Z,4.30
2023-05-22T11:35:22.941Z,4.40
2023-05-22T11:37:53.894Z,10.27
2023-05-22T11:40:29.552Z,4.40
2023-05-22T11:42:57.183Z,4.63
2023-05-22T11:45:25.410Z,5.80
2023-05-22T11:47:52.816Z,2.45
2023-05-22T11:50:41.202Z,5.88
2023-05-22T11:53:08.482Z,4.10
2023-05-22T11:55:36.875Z,5.78
2023-05-22T11:58:04.230Z,3.35
2023-05-22T12:00:32.068Z,5.00
2023-05-22T12:02:59.753Z,4.70
2023-05-22T12:05:27.532Z,6.68
2023-05-22T12:07:54.905Z,12.57
2023-05-22T12:10:23.014Z,5.80
2023-05-22T12:12:50.126Z,2.95
2023-05-22T12:15:21.619Z,3.83
2023-05-22T12:17:50.478Z,5.78
2023-05-22T12:20:19.699Z,4.82
2023-05-22T12:22:49.724Z,7.53
2023-05-22T12:25:18.102Z,3.63
2023-05-22T12:27:46.627Z,3.28
2023-05-22T12:30:15.233Z,7.72
2023-05-22T12:32:49.060Z,6.75
2023-05-22T12:35:17.398Z,6.05
2023-05-22T12:37:51.718Z,7.38
2023-05-22T12:40:19.558Z,4.88
2023-05-22T12:42:48.165Z,6.25
2023-05-22T12:45:18.220Z,7.93
2023-05-22T12:47:45.833Z,3.58
2023-05-22T12:50:13.920Z,7.15
2023-05-22T12:52:41.167Z,6.70
2023-05-22T12:55:10.742Z,6.30
2023-05-22T12:57:37.799Z,8.82
2023-05-22T13:00:06.368Z,3.58
2023-05-22T13:02:34.035Z,2.35
2023-05-22T13:05:01.454Z,4.38
2023-05-22T13:07:29.233Z,3.60
2023-05-22T13:09:56.501Z,5.53
2023-05-22T13:12:23.865Z,4.13
2023-05-22T13:14:51.573Z,2.55
2023-05-22T13:17:19.039Z,5.82
2023-05-22T13:19:46.339Z,3.88
2023-05-22T13:22:14.863Z,6.18
2023-05-22T13:24:42.071Z,6.60
2023-05-22T13:27:09.798Z,3.85
2023-05-22T13:29:36.995Z,8.75
2023-05-22T13:32:04.988Z,8.10
2023-05-22T13:34:32.721Z,4.47
2023-05-22T13:37:00.021Z,7.25
2023-05-22T13:39:27.673Z,5.05
2023-05-22T13:41:55.048Z,5.60
2023-05-22T13:44:23.292Z,5.47
2023-05-22T13:46:50.660Z,7.22
2023-05-22T13:49:18.482Z,5.18
2023-05-22T13:51:46.260Z,8.73
2023-05-22T13:54:14.308Z,6.57
2023-05-22T13:56:41.929Z,5.50
2023-05-22T13:59:09.570Z,3.08
2023-05-22T14:01:37.483Z,2.72
2023-05-22T14:04:05.556Z,5.40
2023-05-22T14:06:33.234Z,12.38
2023-05-22T14:09:00.794Z,7.05
2023-05-22T14:11:28.048Z,4.88
2023-05-22T14:13:55.591Z,5.68
2023-05-22T14:16:23.202Z,12.38
2023-05-22T14:18:51.968Z,10.90
2023-05-22T14:21:20.025Z,5.85
2023-05-22T14:23:47.378Z,3.47
2023-05-22T14:26:14.919Z,3.15
2023-05-22T14:28:42.998Z,5.30
2023-05-22T14:31:10.387Z,5.00
2023-05-22T14:33:38.410Z,4.30
2023-05-22T14:36:06.111Z,6.80
2023-05-22T14:38:34.523Z,11.13
2023-05-22T14:41:01.748Z,8.10
2023-05-22T14:43:30.117Z,2.33
2023-05-22T14:45:58.282Z,5.97
2023-05-22T14:48:26.688Z,5.47
2023-05-22T14:50:54.124Z,3.33
2023-05-22T14:53:22.359Z,5.03
2023-05-22T14:55:50.059Z,10.65
2023-05-22T14:58:17.294Z,3.90
2023-05-22T15:00:46.217Z,3.20
2023-05-22T15:03:15.546Z,5.30
2023-05-22T15:05:42.874Z,6.00
2023-05-22T15:08:10.536Z,5.40
2023-05-22T15:10:38.032Z,4.47
2023-05-22T15:13:05.955Z,3.35
2023-05-22T15:15:33.334Z,7.57
2023-05-22T15:18:02.805Z,5.35
2023-05-22T15:20:31.121Z,7.60
2023-05-22T15:22:59.767Z,2.88
2023-05-22T15:25:26.914Z,4.05
2023-05-22T15:27:54.246Z,2.80
2023-05-22T15:30:23.783Z,3.55
2023-05-22T15:32:52.191Z,5.63
2023-05-22T15:35:19.822Z,8.15
2023-05-22T15:37:49.428Z,8.38
2023-05-22T15:40:18.451Z,5.78
2023-05-22T15:42:45.841Z,7.40
2023-05-22T15:45:13.592Z,5.32
2023-05-22T15:47:42.890Z,5.65
2023-05-22T15:50:11.605Z,4.95
2023-05-22T15:52:39.652Z,4.03
2023-05-22T15:55:07.452Z,11.52
2023-05-22T15:57:35.604Z,3.15
2023-05-22T16:00:02.787Z,6.32
2023-05-22T16:02:31.988Z,4.30
2023-05-22T16:04:59.671Z,2.95
2023-05-22T16:07:27.613Z,4.25
2023-05-22T16:09:55.096Z,5.95
2023-05-22T16:12:22.352Z,6.07
2023-05-22T16:14:49.822Z,6.53
2023-05-22T16:17:17.609Z,8.18
2023-05-22T16:19:44.918Z,4.30
2023-05-22T16:22:21.380Z,10.48
2023-05-22T16:24:49.044Z,5.47
2023-05-22T16:27:16.097Z,6.28
2023-05-22T16:29:43.881Z,5.38
2023-05-22T16:32:11.170Z,4.40
2023-05-22T16:34:38.764Z,13.75
2023-05-22T16:37:06.604Z,5.53
2023-05-22T16:39:34.097Z,4.88
2023-05-22T16:42:01.788Z,10.35
2023-05-22T16:44:29.067Z,3.45
2023-05-22T16:46:56.387Z,4.10
2023-05-22T16:49:23.960Z,3.28
2023-05-22T16:51:51.273Z,3.45
2023-05-22T16:54:18.637Z,7.05
2023-05-22T16:56:46.420Z,7.88
2023-05-22T16:59:13.753Z,5.40
2023-05-22T17:01:41.990Z,6.35
2023-05-22T17:04:11.300Z,19.08
2023-05-22T17:06:38.526Z,5.68
2023-05-22T17:09:05.746Z,10.57
2023-05-22T17:11:32.670Z,5.70
2023-05-22T17:14:01.017Z,11.70
2023-05-22T17:16:28.297Z,11.35
2023-05-22T17:18:55.689Z,7.25
2023-05-22T17:21:24.362Z,7.18
2023-05-22T17:23:51.679Z,5.13
2023-05-22T17:26:18.774Z,4.95
2023-05-22T17:28:46.823Z,9.40
2023-05-22T17:31:14.968Z,7.40
2023-05-22T17:33:43.652Z,15.18
2023-05-22T17:36:10.789Z,9.45
2023-05-22T17:38:38.703Z,6.60
2023-05-22T17:41:05.637Z,7.35
2023-05-22T17:43:35.312Z,10.85
2023-05-22T17:46:02.593Z,8.73
2023-05-22T17:48:30.261Z,6.95
2023-05-22T17:50:57.348Z,6.15
2023-05-22T17:53:24.716Z,10.75
2023-05-22T17:55:55.588Z,7.05
2023-05-22T17:58:22.961Z,6.22
2023-05-22T18:00:50.110Z,7.97
2023-05-22T18:03:27.006Z,8.00
2023-05-22T18:05:54.386Z,6.75
2023-05-22T18:08:21.820Z,6.40
2023-05-22T18:10:49.654Z,7.18
2023-05-22T18:13:19.283Z,6.65
2023-05-22T18:15:46.520Z,8.00
2023-05-22T18:18:13.873Z,9.07
2023-05-22T18:20:41.357Z,7.05
2023-05-22T18:23:08.662Z,10.85
2023-05-22T18:25:36.566Z,10.18
2023-05-22T18:28:03.896Z,9.23
2023-05-22T18:30:32.405Z,8.88
2023-05-22T18:32:59.755Z,12.40
2023-05-22T18:35:27.164Z,11.18
2023-05-22T18:37:54.347Z,7.18
2023-05-22T18:40:21.808Z,7.18
2023-05-22T18:42:48.948Z,7.38
2023-05-22T18:45:16.406Z,9.18
2023-05-22T18:47:43.808Z,10.10
2023-05-22T18:50:11.547Z,8.40
2023-05-22T18:52:39.992Z,9.48
2023-05-22T18:55:08.107Z,6.53
2023-05-22T18:57:35.515Z,17.48
2023-05-22T19:00:03.063Z,11.57
2023-05-22T19:02:30.875Z,13.60
2023-05-22T19:04:58.204Z,9.48
2023-05-22T19:07:26.013Z,6.75
2023-05-22T19:09:52.976Z,9.18
2023-05-22T19:12:20.696Z,9.20
2023-05-22T19:14:48.525Z,7.30
2023-05-22T19:17:16.454Z,4.40
2023-05-22T19:19:44.694Z,10.07
2023-05-22T19:22:11.946Z,13.73
2023-05-22T19:24:39.683Z,39.25
2023-05-22T19:27:07.139Z,27.60
2023-05-22T19:29:34.266Z,32.33
2023-05-22T19:32:01.898Z,32.95
2023-05-22T19:34:29.060Z,23.50
2023-05-22T19:36:58.025Z,17.63
2023-05-22T19:39:25.549Z,22.58
2023-05-22T19:41:54.485Z,17.40
2023-05-22T19:44:21.459Z,15.05
2023-05-22T19:46:48.828Z,17.35
2023-05-22T19:49:16.526Z,12.38
2023-05-22T19:51:43.820Z,11.55
2023-05-22T19:54:11.465Z,14.10
2023-05-22T19:56:39.236Z,13.48
2023-05-22T19:59:06.393Z,20.67
2023-05-22T20:01:33.685Z,8.68
2023-05-22T20:04:01.415Z,10.15
2023-05-22T20:06:31.636Z,59.00
2023-05-22T20:08:59.332Z,574.13
2023-05-22T20:11:29.004Z,382.27
2023-05-22T20:13:56.310Z,99.22
2023-05-22T20:16:28.435Z,129.80
2023-05-22T20:18:56.716Z,107.55
2023-05-22T20:21:23.981Z,96.85
2023-05-22T20:23:51.489Z,102.53
2023-05-22T20:26:19.845Z,57.92
2023-05-22T20:28:47.427Z,33.97
2023-05-22T20:31:14.770Z,41.03
2023-05-22T20:33:41.791Z,25.30
2023-05-22T20:36:09.420Z,18.90
2023-05-22T20:38:36.616Z,12.70
2023-05-22T20:41:08.626Z,11.77
2023-05-22T20:43:37.186Z,13.95
2023-05-22T20:46:04.618Z,15.20
2023-05-22T20:48:31.862Z,131.63
2023-05-22T20:50:59.489Z,116.85
2023-05-22T20:53:26.705Z,41.65
2023-05-22T20:55:54.280Z,121.65
2023-05-22T20:58:23.143Z,46.33
2023-05-22T21:00:50.656Z,43.47
2023-05-22T21:03:18.358Z,45.00
2023-05-22T21:05:45.968Z,201.27
2023-05-22T21:08:13.404Z,262.13
2023-05-22T21:10:40.863Z,140.27
2023-05-22T21:13:08.737Z,193.45
2023-05-22T21:15:37.081Z,526.90
2023-05-22T21:18:04.074Z,131.30
2023-05-22T21:20:31.679Z,701.33
2023-05-22T21:22:58.601Z,432.80
2023-05-22T21:25:26.419Z,356.55
2023-05-22T21:27:54.567Z,438.10
2023-05-22T21:30:22.068Z,98.78
2023-05-22T21:32:49.245Z,37.85
2023-05-22T21:35:16.760Z,60.58
2023-05-22T21:37:43.743Z,43.90
2023-05-22T21:40:11.853Z,22.25
2023-05-22T21:42:46.371Z,15.52
2023-05-22T21:45:15.036Z,24.95
2023-05-22T21:47:42.218Z,36.50
2023-05-22T21:50:10.050Z,80.85
2023-05-22T21:52:37.357Z,21.42
2023-05-22T21:55:05.049Z,51.90
2023-05-22T21:57:32.184Z,19.65
2023-05-22T21:59:59.573Z,23.67
2023-05-22T22:02:26.539Z,16.63
2023-05-22T22:04:54.302Z,127.78
2023-05-22T22:07:21.274Z,92.03
2023-05-22T22:09:50.038Z,35.97
2023-05-22T22:12:17.095Z,28.35
2023-05-22T22:14:44.382Z,40.63
2023-05-22T22:17:11.896Z,16.27
2023-05-22T22:19:41.775Z,25.75
2023-05-22T22:22:09.384Z,16.50
2023-05-22T22:24:37.252Z,14.20
2023-05-22T22:27:04.873Z,15.63
2023-05-22T22:29:32.446Z,15.25
2023-05-22T22:31:59.668Z,25.40
2023-05-22T22:34:26.983Z,24.98
2023-05-22T22:36:54.612Z,26.40
2023-05-22T22:39:21.990Z,11.90
2023-05-22T22:41:49.094Z,13.98
2023-05-22T22:44:16.627Z,26.90
2023-05-22T22:46:44.111Z,16.30
2023-05-22T22:49:11.371Z,14.80
2023-05-22T22:51:38.658Z,14.82
2023-05-22T22:54:05.908Z,12.73
2023-05-22T22:56:33.161Z,17.10
2023-05-22T22:59:00.513Z,16.02
2023-05-22T23:01:27.936Z,16.52
2023-05-22T23:03:55.303Z,11.82
2023-05-22T23:06:23.889Z,66.25
2023-05-22T23:08:51.120Z,16.40
2023-05-22T23:11:18.376Z,14.75
2023-05-22T23:13:45.549Z,19.00
2023-05-22T23:16:12.592Z,12.82
2023-05-22T23:18:40.424Z,11.00
2023-05-22T23:21:07.626Z,11.63
2023-05-22T23:23:35.094Z,12.82
2023-05-22T23:26:02.245Z,16.38
2023-05-22T23:28:30.035Z,14.68
2023-05-22T23:30:57.570Z,13.23
2023-05-22T23:33:24.970Z,14.93
2023-05-22T23:35:51.869Z,23.10
2023-05-22T23:38:19.301Z,24.35
2023-05-22T23:40:46.240Z,14.80
2023-05-22T23:43:13.819Z,16.15
2023-05-22T23:45:40.922Z,16.13
2023-05-22T23:48:08.265Z,16.98
2023-05-22T23:50:36.348Z,15.98
2023-05-22T23:53:04.022Z,16.38
2023-05-22T23:55:31.565Z,15.13
2023-05-22T23:57:58.750Z,15.23
